Terminal Aerodrome Forecast
Issued by NWS Grand Forks, ND

Home | Current Version | Previous Version | Text Only | Print | Product List | Glossary On
Versions: 1 2 3 4 5 6 7 8 9 10 11 12 13 14 15 16 17
196
FTUS43 KFGF 241731
TAFFAR
TAF
KFAR 241731Z 2418/2518 33007KT 4SM -SHRA OVC005
      TEMPO 2418/2421 P6SM -RA OVC008
     FM242200 34009KT P6SM OVC008
      TEMPO 2422/2424 4SM -SHRA BR OVC005
     FM250000 34009KT P6SM VCSH OVC008
     FM250300 35011KT P6SM OVC008=

USA.gov is the U.S. government's official web portal to all federal, state and local government web resources and services.